Flight Track Log - Related Links

Times and Time Zones

All times are in EDT time to prevent confusion due to time zone crossing. See the LOF3376 flight status page for this flight to view local times or setup timezone preferences in your user account.

Time Position Orientation Groundspeed Altitude Reporting Facility
EDT Latitude Longitude Course Direction KTS MPH feet Rate Location/Type
Fri 06:45:45 AM 38.7333 -90.3333 356° North 149 171 1,200  Level Gateway (St. Louis) TRACON
Fri 06:46:45 AM 38.7167 -90.2833 113° Southeast 205 236 3,100 1,859 Climbing Gateway (St. Louis) TRACON
Fri 06:48:00 AM 38.7927 -90.2000 North  Level FlightAware Approximate
Fri 06:49:00 AM 38.9449 -90.2000 North  Level FlightAware Approximate
Fri 06:50:00 AM 39.0295 -90.2013 356° North  Level FlightAware Approximate
Fri 06:51:00 AM 39.1140 -90.2097 356° North  Level FlightAware Approximate
Fri 06:53:20 AM 39.2117 -90.2222 11° North 368 423 15,300  Level Chicago Center
Fri 06:53:59 AM 39.2694 -90.2194 North 333 383 16,300 1,485 Climbing Kansas City Center
Fri 06:54:57 AM 39.3628 -90.2189 360° North 335 386 17,700 1,250 Climbing Kansas City Center
Fri 06:55:00 AM 39.4594 -90.1974 12° North  Level FlightAware Approximate
Fri 06:55:59 AM 39.4578 -90.2053 North 340 391 18,800  Level Kansas City Center
Fri 06:56:00 AM 39.5530 -90.1719 12° North  Level FlightAware Approximate
Fri 06:57:00 AM 39.6467 -90.1467 11° North  Level FlightAware Approximate
Fri 06:57:00 AM 39.5542 -90.1800 11° North 347 399 20,200  Level Kansas City Center
Fri 06:58:00 AM 39.7406 -90.1232 11° North  Level FlightAware Approximate
Fri 06:58:00 AM 39.6522 -90.1558 11° North 353 406 21,000  Level Kansas City Center
Fri 06:59:00 AM 39.7569 -90.1314 10° North 367 422 21,000  Level Kansas City Center
Fri 06:59:58 AM 39.8686 -90.1039 11° North 389 448 21,000  Level Kansas City Center
Fri 07:00:24 AM 39.9131 -90.0725 28° Northeast 431 496 21,000  Level Chicago Center
Fri 07:01:25 AM 40.0142 -89.9856 33° Northeast 436 502 21,000  Level Chicago Center
Fri 07:02:26 AM 40.1186 -89.9008 32° Northeast 441 507 21,000  Level Chicago Center
Fri 07:03:26 AM 40.2233 -89.8128 33° Northeast 447 514 21,000  Level Chicago Center
Fri 07:04:27 AM 40.3469 -89.7086 33° Northeast 443 510 21,000  Level Chicago Center
Fri 07:05:28 AM 40.4489 -89.6225 33° Northeast 440 506 21,000  Level Chicago Center
Fri 07:06:28 AM 40.5503 -89.5378 32° Northeast 437 503 21,000  Level Chicago Center
Fri 07:07:29 AM 40.6511 -89.4506 33° Northeast 438 504 21,000  Level Chicago Center
Fri 07:08:30 AM 40.7489 -89.3489 38° Northeast 449 517 21,000  Level Chicago Center
Fri 07:09:31 AM 40.8458 -89.2447 39° Northeast 452 520 21,000  Level Chicago Center
Fri 07:10:31 AM 40.9419 -89.1425 39° Northeast 448 516 21,000 -942 Level Chicago Center
Fri 07:11:32 AM 41.0350 -89.0419 39° Northeast 438 504 19,100 -1,721 Descending Chicago Center
Fri 07:12:33 AM 41.1269 -88.9439 39° Northeast 429 494 17,500 -1,770 Descending Chicago Center
Fri 07:13:34 AM 41.2139 -88.8478 40° Northeast 412 474 15,500 -2,066 Descending Chicago Center
Fri 07:14:35 AM 41.3150 -88.7381 39° Northeast 394 453 13,300 -2,066 Descending Chicago Center
Fri 07:15:36 AM 41.3933 -88.6511 40° Northeast 374 430 11,300 -1,131 Descending Chicago Center
Fri 07:16:37 AM 41.4725 -88.5647 39° Northeast 369 425 11,000 -443 Descending Chicago Center
Fri 07:17:38 AM 41.5525 -88.4772 39° Northeast 370 426 10,400 -492 Descending Chicago Center
Fri 07:18:39 AM 41.6314 -88.3908 39° Northeast 367 422 10,000 -197 Descending Chicago Center
Fri 07:19:40 AM 41.7075 -88.3000 42° Northeast 365 420 10,000  Level Chicago Center
Fri 07:20:41 AM 41.7694 -88.1903 53° Northeast 368 423 10,000 -197 Level Chicago Center
Fri 07:21:42 AM 41.8275 -88.0950 51° Northeast 323 372 9,600 -1,065 Descending Chicago Center
Fri 07:22:28 AM 41.8833 -88.0833 North 274 315 8,100 -1,500 Descending Chicago TRACON
Fri 07:23:22 AM 41.9500 -88.0833 360° North 266 306 7,100 -1,000 Descending Chicago TRACON
Fri 07:24:22 AM 42.0167 -88.1167 340° North 217 250 6,200 -940 Descending Chicago TRACON
Fri 07:24:45 AM 42.0219 -88.1322 295° West 231 266 5,800 -1,429 Descending Chicago Center
Fri 07:25:46 AM 42.0736 -88.1089 19° North 237 273 4,200 -1,574 Descending Chicago Center

Login

Don't have an account? Register now (free) for customized features, flight alerts, and more!